^^
Grace C. Lehan Memorial Weather Station Historical Data
Daily Summary for January 7, 2021 Units:  Both    English   Metric
Daily Weekly Monthly Yearly
  High: Low: Average:
Temperature: 67.3 °F /  19.6 °C 61 °F /  16.1 °C 62.9 °F /  17.2 °C
Dew Point: 42.3 °F /  5.7 °C 38.9 °F /  3.8 °C 40.3 °F /  4.6 °C
Humidity: 48% 37% 44%
Wind Speed: 3.2mph /  5.1km/h - 0.4mph /  0.6km/h
Wind Gust: 6mph /  9.7km/h - -
Wind- - SE
Pressure: 29.91 in /  1012.8 hPa 29.84 in /  1010.4 hPa -
Precipitation: 0.00 in /  0 mm    
 
 
Tabular Data for January 7, 2021
Time Temperature Dew Point Pressure Wind Wind Speed Wind Gust Humidity Rainfall Rate (Hourly) solar
11:00 67.3 °F /  19.6 °C 40.8 °F /  4.9 °C 29.91in /  1012.8hPa ENE 1mph /  1.6km/h 6mph /  9.7km/h 38% 0.00in /  0mm 866 W/m2
11:30 66.7 °F /  19.3 °C 39.6 °F /  4.2 °C 29.89in /  1012.1hPa Calm   6mph /  9.7km/h 37% 0.00in /  0mm 896 W/m2
12:04 65.5 °F /  18.6 °C 39.2 °F /  4 °C 29.89in /  1012.1hPa NNE 3.2mph /  5.1km/h 6mph /  9.7km/h 37.9% 0.00in /  0mm 896 W/m2
12:09 65.3 °F /  18.5 °C 39.1 °F /  3.9 °C 29.88in /  1011.7hPa NE 1.5mph /  2.4km/h 6mph /  9.7km/h 38.1% 0.00in /  0mm 315 W/m2
12:14 65 °F /  18.3 °C 39.4 °F /  4.1 °C 29.88in /  1011.7hPa East 0.5mph /  0.8km/h 6mph /  9.7km/h 38.8% 0.00in /  0mm 301 W/m2
12:19 64.8 °F /  18.2 °C 39.6 °F /  4.2 °C 29.88in /  1011.7hPa Calm   6mph /  9.7km/h 39.5% 0.00in /  0mm 278 W/m2
12:24 64.7 °F /  18.2 °C 39.2 °F /  4 °C 29.88in /  1011.7hPa SE 0.2mph /  0.3km/h 6mph /  9.7km/h 39% 0.00in /  0mm 225 W/m2
12:29 64.4 °F /  18 °C 38.9 °F /  3.8 °C 29.88in /  1011.7hPa SSE 0.2mph /  0.3km/h 6mph /  9.7km/h 38.9% 0.00in /  0mm 202 W/m2
12:34 64.2 °F /  17.9 °C 39.8 °F /  4.3 °C 29.88in /  1011.7hPa South 0.1mph /  0.2km/h 6mph /  9.7km/h 40.7% 0.00in /  0mm 190 W/m2
12:39 64 °F /  17.8 °C 39.4 °F /  4.1 °C 29.88in /  1011.7hPa Calm   3mph /  4.8km/h 40.3% 0.00in /  0mm 204 W/m2
12:44 63.8 °F /  17.7 °C 39.3 °F /  4.1 °C 29.88in /  1011.7hPa South 0.1mph /  0.2km/h 3mph /  4.8km/h 40.5% 0.00in /  0mm 294 W/m2
12:49 63.6 °F /  17.6 °C 39.8 °F /  4.3 °C 29.88in /  1011.7hPa South 0.1mph /  0.2km/h 3mph /  4.8km/h 41.5% 0.00in /  0mm 348 W/m2
12:54 63.8 °F /  17.7 °C 40.7 °F /  4.8 °C 29.87in /  1011.4hPa NE 0.7mph /  1.1km/h 3mph /  4.8km/h 42.6% 0.00in /  0mm 378 W/m2
12:59 64.1 °F /  17.8 °C 40 °F /  4.4 °C 29.87in /  1011.4hPa ENE 0.1mph /  0.2km/h 3mph /  4.8km/h 41% 0.00in /  0mm 459 W/m2
13:04 64.3 °F /  17.9 °C 39.7 °F /  4.3 °C 29.87in /  1011.4hPa ENE 0.1mph /  0.2km/h 3mph /  4.8km/h 40.4% 0.00in /  0mm 496 W/m2
13:09 64.4 °F /  18 °C 40.5 °F /  4.7 °C 29.87in /  1011.4hPa East 0.9mph /  1.4km/h 4mph /  6.4km/h 41.5% 0.00in /  0mm 352 W/m2
13:14 64.4 °F /  18 °C 40.2 °F /  4.6 °C 29.87in /  1011.4hPa East 0.5mph /  0.8km/h 4mph /  6.4km/h 40.9% 0.00in /  0mm 234 W/m2
13:19 64.2 °F /  17.9 °C 40.2 °F /  4.6 °C 29.87in /  1011.4hPa Calm   4mph /  6.4km/h 41.3% 0.00in /  0mm 149 W/m2
13:24 63.8 °F /  17.7 °C 40 °F /  4.4 °C 29.87in /  1011.4hPa ESE 1.2mph /  1.9km/h 4mph /  6.4km/h 41.5% 0.00in /  0mm 120 W/m2
13:29 63.1 °F /  17.3 °C 40.4 °F /  4.7 °C 29.87in /  1011.4hPa ESE 1.2mph /  1.9km/h 5mph /  8km/h 43.2% 0.00in /  0mm 88 W/m2
13:34 62.4 °F /  16.9 °C 40.9 °F /  4.9 °C 29.87in /  1011.4hPa SE 0.5mph /  0.8km/h 5mph /  8km/h 45.1% 0.00in /  0mm 67 W/m2
13:39 61.9 °F /  16.6 °C 40.8 °F /  4.9 °C 29.87in /  1011.4hPa SE 0.6mph /  1km/h 4mph /  6.4km/h 45.7% 0.00in /  0mm 69 W/m2
13:44 61.6 °F /  16.4 °C 40.4 °F /  4.7 °C 29.87in /  1011.4hPa SSE 0.5mph /  0.8km/h 5mph /  8km/h 45.7% 0.00in /  0mm 72 W/m2
13:49 61.3 °F /  16.3 °C 40.7 °F /  4.8 °C 29.87in /  1011.4hPa South 0.6mph /  1km/h 5mph /  8km/h 46.5% 0.00in /  0mm 76 W/m2
13:54 61.1 °F /  16.2 °C 40.7 °F /  4.8 °C 29.87in /  1011.4hPa South 0.4mph /  0.6km/h 5mph /  8km/h 46.8% 0.00in /  0mm 88 W/m2
13:59 61 °F /  16.1 °C 40.7 °F /  4.8 °C 29.87in /  1011.4hPa Calm   5mph /  8km/h 47% 0.00in /  0mm 97 W/m2
14:04 61 °F /  16.1 °C 40.9 °F /  4.9 °C 29.86in /  1011.1hPa South 0.3mph /  0.5km/h 5mph /  8km/h 47.4% 0.00in /  0mm 107 W/m2
14:09 61 °F /  16.1 °C 40.5 °F /  4.7 °C 29.86in /  1011.1hPa South 0.2mph /  0.3km/h 3mph /  4.8km/h 46.6% 0.00in /  0mm 109 W/m2
14:14 61.1 °F /  16.2 °C 40.4 °F /  4.7 °C 29.86in /  1011.1hPa Calm   3mph /  4.8km/h 46.4% 0.00in /  0mm 105 W/m2
14:19 61.1 °F /  16.2 °C 40.3 °F /  4.6 °C 29.86in /  1011.1hPa SSE 0.2mph /  0.3km/h 3mph /  4.8km/h 46.1% 0.00in /  0mm 104 W/m2
14:24 61.1 °F /  16.2 °C 39.8 °F /  4.3 °C 29.86in /  1011.1hPa Calm   3mph /  4.8km/h 45.4% 0.00in /  0mm 107 W/m2
14:29 61.1 °F /  16.2 °C 40.4 °F /  4.7 °C 29.86in /  1011.1hPa Calm   3mph /  4.8km/h 46.3% 0.00in /  0mm 113 W/m2
14:34 61.1 °F /  16.2 °C 40.6 °F /  4.8 °C 29.86in /  1011.1hPa SSE 0.1mph /  0.2km/h 3mph /  4.8km/h 46.8% 0.00in /  0mm 113 W/m2
14:39 61.2 °F /  16.2 °C 40.4 °F /  4.7 °C 29.85in /  1010.7hPa SSE 0.1mph /  0.2km/h 2mph /  3.2km/h 46.2% 0.00in /  0mm 120 W/m2
14:44 61.3 °F /  16.3 °C 40.6 °F /  4.8 °C 29.85in /  1010.7hPa SSE 0.2mph /  0.3km/h 3mph /  4.8km/h 46.5% 0.00in /  0mm 142 W/m2
14:49 61.3 °F /  16.3 °C 40.4 °F /  4.7 °C 29.85in /  1010.7hPa Calm   3mph /  4.8km/h 46% 0.00in /  0mm 171 W/m2
14:54 61.4 °F /  16.3 °C 40.2 °F /  4.6 °C 29.85in /  1010.7hPa Calm   3mph /  4.8km/h 45.6% 0.00in /  0mm 185 W/m2
14:59 61.5 °F /  16.4 °C 40.6 °F /  4.8 °C 29.85in /  1010.7hPa Calm   3mph /  4.8km/h 46% 0.00in /  0mm 190 W/m2
15:04 61.7 °F /  16.5 °C 40.5 °F /  4.7 °C 29.85in /  1010.7hPa Calm   3mph /  4.8km/h 45.5% 0.00in /  0mm 195 W/m2
15:09 61.9 °F /  16.6 °C 41.1 °F /  5.1 °C 29.84in /  1010.4hPa Calm   2mph /  3.2km/h 46.3% 0.00in /  0mm 199 W/m2
15:14 62.1 °F /  16.7 °C 41.4 °F /  5.2 °C 29.84in /  1010.4hPa Calm   2mph /  3.2km/h 46.4% 0.00in /  0mm 183 W/m2
15:19 62.2 °F /  16.8 °C 42.3 °F /  5.7 °C 29.84in /  1010.4hPa SSW 0.3mph /  0.5km/h 3mph /  4.8km/h 48% 0.00in /  0mm 155 W/m2
15:23 62.2 °F /  16.8 °C 42.2 °F /  5.7 °C 29.84in /  1010.4hPa South 1.1mph /  1.8km/h 4mph /  6.4km/h 48% 0.00in /  0mm 178 W/m2
Hartford County Weather
Compliments of Weather Underground - 2 mb